Time;durP1;ratioP1;P1;durP2;ratioP2;P2;SDS_P1;SDS_P2;PMS_P1;PMS_P2;Temp;Humidity;BMP_temperature;BMP_pressure;BME280_temperature;BME280_humidity;BME280_pressure;Samples;Min_cycle;Max_cycle;Signal;HPM_P1;HPM_P2
2022/02/18 00:01:04;;;;;;;10.37;4.00;;;8.60;99.90;;;;;;2622099;47;20956;-80
2022/02/18 00:03:33;;;;;;;8.70;3.70;;;8.70;99.90;;;;;;2621791;47;20389;-81
2022/02/18 00:06:00;;;;;;;8.83;3.30;;;8.50;99.90;;;;;;2621484;54;20395;-80
2022/02/18 00:08:28;;;;;;;8.10;4.30;;;8.40;99.90;;;;;;2621685;47;20483;-82
2022/02/18 00:10:54;;;;;;;17.57;4.10;;;8.40;99.90;;;;;;2621564;47;20372;-80
2022/02/18 00:13:20;;;;;;;13.63;5.20;;;8.30;99.90;;;;;;2621576;47;20406;-82
2022/02/18 00:15:46;;;;;;;8.13;4.20;;;8.30;99.90;;;;;;2622034;47;20703;-82
2022/02/18 00:18:14;;;;;;;16.20;5.50;;;8.50;99.90;;;;;;2621747;47;20491;-81
2022/02/18 00:21:06;;;;;;;13.00;5.13;;;8.20;99.90;;;;;;2621763;54;20392;-83
2022/02/18 00:23:33;;;;;;;10.40;4.47;;;8.20;99.90;;;;;;2622587;39;20859;-82
2022/02/18 00:25:59;;;;;;;10.53;4.17;;;8.30;99.90;;;;;;2621199;47;20392;-81
2022/02/18 00:28:26;;;;;;;8.17;4.27;;;8.20;99.90;;;;;;2621656;47;20972;-80
2022/02/18 00:30:53;;;;;;;11.93;5.00;;;8.30;99.90;;;;;;2621686;47;20399;-81
2022/02/18 00:33:19;;;;;;;17.00;5.97;;;8.20;99.90;;;;;;2621619;47;20391;-82
2022/02/18 00:35:48;;;;;;;18.90;4.33;;;8.30;99.90;;;;;;2621837;47;20383;-82
2022/02/18 00:38:16;;;;;;;11.47;5.57;;;8.30;99.90;;;;;;2621010;47;20476;-81
2022/02/18 00:40:42;;;;;;;15.60;5.23;;;8.60;99.90;;;;;;2621328;39;20782;-81
2022/02/18 00:43:08;;;;;;;13.83;4.70;;;8.10;99.90;;;;;;2620941;47;20378;-80
2022/02/18 00:45:34;;;;;;;18.23;6.10;;;8.10;99.90;;;;;;2623550;31;21010;-81
2022/02/18 00:48:31;;;;;;;11.03;6.10;;;8.00;99.90;;;;;;2621700;47;20153;-82
2022/02/18 00:50:58;;;;;;;13.93;5.33;;;8.10;99.90;;;;;;2621717;54;20391;-81
2022/02/18 00:53:24;;;;;;;18.87;5.40;;;8.10;99.90;;;;;;2620936;47;20457;-81
2022/02/18 00:56:24;;;;;;;13.00;4.50;;;8.10;99.90;;;;;;2621321;47;20376;-80
2022/02/18 00:58:49;;;;;;;14.17;4.90;;;8.10;99.90;;;;;;2623581;31;20566;-81
2022/02/18 01:01:15;;;;;;;17.53;5.70;;;8.20;99.90;;;;;;2621758;47;20397;-82
2022/02/18 01:03:41;;;;;;;10.03;4.47;;;8.10;99.90;;;;;;2621950;47;20202;-82
2022/02/18 01:06:07;;;;;;;13.93;6.00;;;8.40;99.90;;;;;;2623095;47;20182;-82
2022/02/18 01:08:33;;;;;;;23.60;6.50;;;8.10;99.90;;;;;;2622537;46;20150;-81
2022/02/18 01:10:59;;;;;;;14.17;4.90;;;8.10;99.90;;;;;;2623393;54;20150;-82
2022/02/18 01:13:24;;;;;;;13.00;5.43;;;8.30;99.90;;;;;;2622766;47;20437;-81
2022/02/18 01:15:53;;;;;;;14.30;6.60;;;8.20;99.90;;;;;;2622962;47;20149;-81
2022/02/18 01:18:21;;;;;;;13.30;5.33;;;8.40;99.90;;;;;;2622427;47;20384;-82
2022/02/18 01:20:47;;;;;;;11.67;4.80;;;8.80;99.90;;;;;;2622358;47;20392;-81
2022/02/18 01:23:15;;;;;;;11.23;5.20;;;8.40;99.90;;;;;;2622804;54;20394;-80
2022/02/18 01:25:41;;;;;;;16.57;6.10;;;8.20;99.90;;;;;;2622314;39;20799;-81
2022/02/18 01:28:11;;;;;;;18.87;5.13;;;8.40;99.90;;;;;;2622508;47;20388;-82
2022/02/18 01:30:37;;;;;;;18.23;6.70;;;8.50;99.90;;;;;;2621931;46;20374;-80
2022/02/18 01:33:03;;;;;;;15.63;4.60;;;8.40;99.90;;;;;;2622089;47;20387;-81
2022/02/18 01:35:32;;;;;;;12.30;6.23;;;8.60;99.90;;;;;;2622504;39;20451;-81
2022/02/18 01:37:58;;;;;;;15.20;5.87;;;8.50;99.90;;;;;;2622773;47;20421;-81
2022/02/18 01:40:24;;;;;;;23.33;5.30;;;8.60;99.90;;;;;;2622031;47;20391;-81
2022/02/18 01:42:51;;;;;;;11.73;5.50;;;8.50;99.90;;;;;;2622121;54;20390;-81
2022/02/18 01:45:19;;;;;;;13.80;5.53;;;8.60;99.90;;;;;;2622004;54;20440;-82
2022/02/18 01:47:47;;;;;;;16.33;6.20;;;8.60;99.90;;;;;;2622140;47;20981;-81
2022/02/18 01:50:42;;;;;;;22.27;6.80;;;8.60;99.90;;;;;;2621982;54;20479;-82
2022/02/18 01:53:11;;;;;;;16.47;5.20;;;8.50;99.90;;;;;;2622104;46;20415;-81
2022/02/18 01:55:37;;;;;;;19.23;4.53;;;8.50;99.90;;;;;;2621553;47;20386;-81
2022/02/18 01:58:04;;;;;;;16.50;4.70;;;8.60;99.90;;;;;;2621810;47;20431;-81
2022/02/18 02:00:33;;;;;;;16.73;4.73;;;8.70;99.90;;;;;;2621608;47;20402;-79
2022/02/18 02:03:03;;;;;;;13.03;5.73;;;8.80;99.90;;;;;;2618651;54;20395;-78
2022/02/18 02:05:59;;;;;;;19.27;5.57;;;8.80;99.90;;;;;;2618763;46;20399;-79
2022/02/18 02:08:27;;;;;;;23.73;5.00;;;8.80;99.90;;;;;;2618610;46;20410;-79
2022/02/18 02:10:57;;;;;;;14.67;5.27;;;8.80;99.90;;;;;;2618537;47;20404;-79
2022/02/18 02:13:33;;;;;;;8.43;3.50;;;8.60;99.90;;;;;;2618749;47;20387;-80
2022/02/18 02:16:02;;;;;;;13.33;4.37;;;8.60;99.90;;;;;;2618893;46;20382;-79
2022/02/18 02:18:28;;;;;;;10.90;5.33;;;8.70;99.90;;;;;;2618801;47;20403;-79
2022/02/18 02:20:54;;;;;;;16.27;5.30;;;8.70;99.90;;;;;;2618893;54;20452;-81
2022/02/18 02:23:21;;;;;;;14.40;4.50;;;8.90;99.90;;;;;;2618672;47;20379;-80
2022/02/18 02:25:47;;;;;;;12.07;4.73;;;8.70;99.90;;;;;;2618802;51;20380;-81
2022/02/18 02:28:18;;;;;;;11.50;4.30;;;8.60;99.90;;;;;;2619251;39;20811;-80
2022/02/18 02:30:45;;;;;;;11.63;4.90;;;8.60;99.90;;;;;;2618806;46;20376;-79
2022/02/18 02:33:13;;;;;;;12.30;4.60;;;8.60;99.90;;;;;;2618440;47;20985;-80
2022/02/18 02:35:41;;;;;;;28.43;6.13;;;8.70;99.90;;;;;;2618556;47;20369;-79
2022/02/18 02:38:08;;;;;;;15.93;5.50;;;8.90;99.90;;;;;;2618328;46;20723;-79
2022/02/18 02:40:34;;;;;;;11.50;4.30;;;8.80;99.90;;;;;;2618889;39;20927;-79
2022/02/18 02:43:00;;;;;;;15.00;4.83;;;8.70;99.90;;;;;;2618390;47;20522;-79
2022/02/18 02:45:26;;;;;;;24.17;5.07;;;8.80;99.90;;;;;;2618459;47;20388;-81
2022/02/18 02:47:54;;;;;;;10.73;4.13;;;8.90;99.90;;;;;;2618587;46;20418;-80
2022/02/18 02:50:38;;;;;;;12.43;4.40;;;8.90;99.90;;;;;;2618897;54;20376;-79
2022/02/18 02:53:05;;;;;;;13.20;4.73;;;9.00;99.90;;;;;;2618776;47;20380;-80
2022/02/18 02:55:31;;;;;;;17.97;7.70;;;9.10;99.90;;;;;;2620215;31;20867;-80
2022/02/18 02:57:57;;;;;;;16.73;4.80;;;9.20;99.90;;;;;;2618355;47;20247;-80
2022/02/18 03:00:23;;;;;;;12.33;4.80;;;9.20;99.90;;;;;;2618365;54;20455;-81
2022/02/18 03:02:49;;;;;;;14.43;5.10;;;9.10;99.90;;;;;;2618485;47;20681;-80
2022/02/18 03:05:20;;;;;;;11.60;4.43;;;8.80;99.90;;;;;;2618219;46;20516;-80
2022/02/18 03:07:53;;;;;;;15.70;5.13;;;9.00;99.90;;;;;;2618652;46;20427;-78
2022/02/18 03:10:21;;;;;;;13.70;4.30;;;9.00;99.90;;;;;;2618739;47;20375;-80
2022/02/18 03:12:48;;;;;;;13.60;4.57;;;8.90;99.90;;;;;;2618316;47;20743;-80
2022/02/18 03:15:16;;;;;;;10.47;3.33;;;8.70;99.90;;;;;;2618577;54;20383;-80
2022/02/18 03:17:42;;;;;;;16.17;5.10;;;8.80;99.90;;;;;;2618746;47;20380;-81
2022/02/18 03:20:34;;;;;;;20.50;5.13;;;8.90;99.90;;;;;;2618596;47;20408;-79
2022/02/18 03:23:00;;;;;;;11.77;5.60;;;8.90;99.90;;;;;;2618945;47;20923;-80
2022/02/18 03:25:27;;;;;;;16.97;5.63;;;8.90;99.90;;;;;;2618927;47;20396;-79
2022/02/18 03:27:53;;;;;;;13.60;4.60;;;9.00;99.90;;;;;;2618862;47;20403;-80
2022/02/18 03:30:23;;;;;;;19.30;5.53;;;9.00;99.90;;;;;;2618907;47;20376;-79
2022/02/18 03:32:50;;;;;;;17.80;4.07;;;9.00;99.90;;;;;;2618648;47;20954;-80
2022/02/18 03:35:49;;;;;;;11.93;4.30;;;8.90;99.90;;;;;;2618799;54;21008;-79
2022/02/18 03:38:15;;;;;;;16.40;4.80;;;9.00;99.90;;;;;;2618434;47;20384;-80
2022/02/18 03:40:46;;;;;;;15.40;4.73;;;9.00;99.90;;;;;;2618694;47;20480;-79
2022/02/18 03:43:15;;;;;;;19.93;4.57;;;8.90;99.90;;;;;;2618566;47;20389;-79
2022/02/18 03:46:00;;;;;;;15.97;5.00;;;8.90;99.90;;;;;;2619514;39;20778;-81
2022/02/18 03:48:30;;;;;;;23.70;6.10;;;9.00;99.90;;;;;;2618574;47;20497;-81
2022/02/18 03:50:57;;;;;;;19.93;5.23;;;8.90;99.90;;;;;;2618788;46;20440;-79
2022/02/18 03:53:25;;;;;;;18.23;5.30;;;8.80;99.90;;;;;;2618558;54;20395;-79
2022/02/18 03:56:06;;;;;;;9.13;4.40;;;8.80;99.90;;;;;;2618633;47;20911;-80
2022/02/18 03:58:36;;;;;;;18.17;4.27;;;8.80;99.90;;;;;;2618564;47;20877;-80
2022/02/18 04:01:02;;;;;;;12.63;4.87;;;9.00;99.90;;;;;;2618538;54;20941;-80
2022/02/18 04:03:28;;;;;;;14.77;4.90;;;9.00;99.90;;;;;;2618750;47;20392;-80
2022/02/18 04:06:12;;;;;;;14.83;5.40;;;9.00;99.90;;;;;;2619112;54;20444;-80
2022/02/18 04:08:43;;;;;;;18.10;5.20;;;9.60;99.90;;;;;;2619587;39;20845;-79
2022/02/18 04:11:20;;;;;;;21.07;6.60;;;9.10;99.90;;;;;;2618768;54;20372;-80
2022/02/18 04:13:46;;;;;;;26.10;6.77;;;9.10;99.90;;;;;;2618883;47;20436;-80
2022/02/18 04:16:12;;;;;;;16.33;4.80;;;9.10;99.90;;;;;;2619727;39;20885;-80
2022/02/18 04:18:39;;;;;;;17.97;7.20;;;9.10;99.90;;;;;;2618893;39;20577;-79
2022/02/18 04:21:06;;;;;;;11.83;4.43;;;9.10;99.90;;;;;;2618678;47;20404;-80
2022/02/18 04:23:58;;;;;;;18.67;5.20;;;9.00;99.90;;;;;;2618986;39;20861;-81
2022/02/18 04:26:24;;;;;;;14.43;7.13;;;9.00;99.90;;;;;;2618893;47;20403;-79
2022/02/18 04:28:51;;;;;;;26.40;5.07;;;8.90;99.90;;;;;;2618814;47;20143;-80
2022/02/18 04:31:17;;;;;;;12.83;5.73;;;9.10;99.90;;;;;;2618711;54;20454;-79
2022/02/18 04:33:43;;;;;;;21.93;6.27;;;9.00;99.90;;;;;;2619083;47;20383;-79
2022/02/18 04:36:11;;;;;;;24.57;4.67;;;9.00;99.90;;;;;;2619681;47;20385;-78
2022/02/18 04:38:38;;;;;;;23.77;4.97;;;9.20;99.90;;;;;;2619596;47;20491;-78
2022/02/18 04:41:07;;;;;;;23.93;5.17;;;9.10;99.90;;;;;;2619522;46;20396;-79
2022/02/18 04:43:33;;;;;;;15.93;5.00;;;8.90;99.90;;;;;;2619658;46;21093;-79
2022/02/18 04:46:00;;;;;;;22.90;5.13;;;9.00;99.90;;;;;;2619595;47;20380;-79
2022/02/18 04:48:27;;;;;;;17.17;3.87;;;8.90;99.90;;;;;;2619480;54;20391;-80
2022/02/18 04:51:22;;;;;;;13.63;4.20;;;9.10;99.90;;;;;;2620213;39;20784;-79
2022/02/18 04:53:48;;;;;;;15.03;5.03;;;9.10;99.90;;;;;;2619306;46;20376;-80
2022/02/18 04:56:45;;;;;;;20.47;5.20;;;8.90;99.90;;;;;;2619516;46;20399;-80
2022/02/18 04:59:42;;;;;;;14.73;4.20;;;9.00;99.90;;;;;;2619000;54;20145;-80
2022/02/18 05:02:08;;;;;;;14.87;5.40;;;9.20;99.90;;;;;;2619078;47;20418;-80
2022/02/18 05:04:33;;;;;;;17.47;5.57;;;9.20;99.90;;;;;;2618697;47;20503;-80
2022/02/18 05:07:28;;;;;;;23.27;4.30;;;9.20;99.90;;;;;;2619196;47;20702;-80
2022/02/18 05:10:36;;;;;;;29.57;4.93;;;9.10;99.90;;;;;;2619360;47;20688;-80
2022/02/18 05:13:02;;;;;;;7.10;3.67;;;9.30;99.90;;;;;;2619271;54;20925;-80
2022/02/18 05:15:28;;;;;;;16.87;4.30;;;9.20;99.90;;;;;;2622080;47;20400;-80
2022/02/18 05:17:54;;;;;;;13.10;5.90;;;9.10;99.90;;;;;;2623039;47;20415;-81
2022/02/18 05:20:19;;;;;;;12.70;5.30;;;9.10;99.90;;;;;;2622335;46;20152;-81
2022/02/18 05:22:46;;;;;;;16.70;4.23;;;9.30;99.90;;;;;;2622885;54;20150;-80
2022/02/18 05:25:14;;;;;;;15.37;4.90;;;9.60;99.90;;;;;;2623259;47;20239;-80
2022/02/18 05:27:41;;;;;;;12.07;3.80;;;9.20;99.90;;;;;;2622960;54;20515;-80
2022/02/18 05:30:33;;;;;;;15.93;5.13;;;9.10;99.90;;;;;;2622621;47;20383;-79
2022/02/18 05:33:26;;;;;;;17.00;5.20;;;9.00;99.90;;;;;;2622599;46;20147;-78
2022/02/18 05:35:52;;;;;;;17.47;4.73;;;9.10;99.90;;;;;;2619648;47;20384;-80
2022/02/18 05:38:19;;;;;;;12.47;4.40;;;9.10;99.90;;;;;;2619378;47;20392;-80
2022/02/18 05:40:46;;;;;;;21.27;4.70;;;9.00;99.90;;;;;;2619653;47;20495;-80
2022/02/18 05:43:12;;;;;;;11.23;4.70;;;9.00;99.90;;;;;;2619377;47;20207;-81
2022/02/18 05:46:07;;;;;;;12.43;5.93;;;9.00;99.90;;;;;;2618978;54;20964;-78
2022/02/18 05:48:34;;;;;;;21.57;5.13;;;9.10;99.90;;;;;;2619518;54;20970;-82
2022/02/18 05:51:03;;;;;;;12.53;4.60;;;8.90;99.90;;;;;;2619354;47;20504;-80
2022/02/18 05:53:32;;;;;;;23.63;5.40;;;9.10;99.90;;;;;;2619392;47;20398;-80
2022/02/18 05:55:58;;;;;;;17.63;4.27;;;9.10;99.90;;;;;;2619387;54;20605;-80
2022/02/18 05:58:24;;;;;;;21.10;5.57;;;9.10;99.90;;;;;;2619300;47;20418;-81
2022/02/18 06:00:50;;;;;;;14.73;4.60;;;9.20;99.90;;;;;;2619149;47;20415;-81
2022/02/18 06:03:16;;;;;;;12.53;3.83;;;9.30;99.90;;;;;;2619143;47;20392;-82
2022/02/18 06:06:10;;;;;;;14.80;5.33;;;9.20;99.90;;;;;;2619887;39;20571;-79
2022/02/18 06:08:36;;;;;;;15.17;4.93;;;9.20;99.90;;;;;;2619782;39;20583;-80
2022/02/18 06:11:02;;;;;;;15.17;4.67;;;9.30;99.90;;;;;;2619083;46;20407;-81
2022/02/18 06:13:29;;;;;;;18.43;4.40;;;9.20;99.90;;;;;;2618928;47;20143;-80
2022/02/18 06:15:56;;;;;;;9.73;4.53;;;9.30;99.90;;;;;;2619325;47;20402;-80
2022/02/18 06:18:24;;;;;;;8.00;5.13;;;9.20;99.90;;;;;;2619180;54;20391;-80
2022/02/18 06:21:16;;;;;;;17.57;4.77;;;9.30;99.90;;;;;;2619310;54;20379;-81
2022/02/18 06:23:41;;;;;;;13.60;6.10;;;9.30;99.90;;;;;;2619026;46;20933;-81
2022/02/18 06:26:07;;;;;;;9.90;3.40;;;9.20;99.90;;;;;;2619099;54;20387;-80
2022/02/18 06:28:33;;;;;;;9.20;3.30;;;9.30;99.90;;;;;;2618474;47;20142;-79
2022/02/18 06:31:00;;;;;;;11.47;3.70;;;9.10;99.90;;;;;;2618850;47;20380;-77
2022/02/18 06:33:26;;;;;;;13.90;3.93;;;9.20;99.90;;;;;;2618848;47;20516;-77
2022/02/18 06:35:52;;;;;;;15.40;5.37;;;8.70;99.90;;;;;;2619538;39;20774;-79
2022/02/18 06:38:18;;;;;;;12.97;4.53;;;8.80;99.90;;;;;;2618597;54;20143;-78
2022/02/18 06:40:44;;;;;;;11.03;3.47;;;8.70;99.90;;;;;;2618481;47;20447;-79
2022/02/18 06:43:36;;;;;;;14.70;4.40;;;8.60;99.90;;;;;;2618559;54;20142;-79
2022/02/18 06:46:02;;;;;;;10.40;3.40;;;8.60;99.90;;;;;;2618322;54;20143;-79
2022/02/18 06:48:28;;;;;;;17.60;5.20;;;8.50;99.90;;;;;;2618517;54;20375;-78
2022/02/18 06:50:55;;;;;;;14.87;4.67;;;8.40;99.90;;;;;;2618574;47;20422;-77
2022/02/18 06:53:22;;;;;;;23.90;5.10;;;8.50;99.90;;;;;;2618301;54;20143;-78
2022/02/18 06:55:48;;;;;;;10.27;3.83;;;8.60;99.90;;;;;;2618382;46;20391;-78
2022/02/18 06:58:15;;;;;;;16.47;4.50;;;8.50;99.90;;;;;;2618116;47;20491;-79
2022/02/18 07:00:43;;;;;;;10.30;3.73;;;8.40;99.90;;;;;;2618131;47;20436;-78
2022/02/18 07:03:09;;;;;;;16.70;4.10;;;8.40;99.90;;;;;;2618053;47;20476;-78
2022/02/18 07:05:35;;;;;;;16.60;4.73;;;8.40;99.90;;;;;;2618357;47;20387;-78
2022/02/18 07:08:02;;;;;;;11.33;4.93;;;8.40;99.90;;;;;;2618230;47;20261;-78
2022/02/18 07:10:54;;;;;;;18.50;5.13;;;8.30;99.90;;;;;;2618318;47;21023;-79
2022/02/18 07:13:21;;;;;;;15.93;4.20;;;8.30;99.90;;;;;;2618214;47;20481;-79
2022/02/18 07:15:47;;;;;;;7.70;2.60;;;8.20;99.90;;;;;;2618158;47;20390;-79
2022/02/18 07:18:16;;;;;;;17.53;5.00;;;8.30;99.90;;;;;;2618740;39;20803;-79
2022/02/18 07:20:43;;;;;;;10.63;4.70;;;8.20;99.90;;;;;;2618020;47;20388;-77
2022/02/18 07:23:09;;;;;;;18.80;4.33;;;8.00;99.90;;;;;;2618175;47;20392;-78
2022/02/18 07:25:36;;;;;;;17.73;3.77;;;8.00;99.90;;;;;;2619054;39;20807;-79
2022/02/18 07:28:02;;;;;;;25.50;5.00;;;7.90;99.90;;;;;;2618314;47;20415;-79
2022/02/18 07:30:28;;;;;;;19.07;6.03;;;8.00;99.90;;;;;;2618468;54;20386;-79
2022/02/18 07:32:56;;;;;;;13.83;4.77;;;8.10;99.90;;;;;;2619093;39;20808;-77
2022/02/18 07:35:24;;;;;;;13.63;5.10;;;8.10;99.90;;;;;;2618700;47;20396;-80
2022/02/18 07:38:17;;;;;;;17.63;4.83;;;8.00;99.90;;;;;;2619016;39;20855;-79
2022/02/18 07:40:46;;;;;;;10.10;3.57;;;8.00;99.90;;;;;;2618499;46;20505;-79
2022/02/18 07:43:13;;;;;;;19.40;5.13;;;8.10;99.90;;;;;;2618109;47;21560;-79
2022/02/18 07:45:39;;;;;;;17.33;4.40;;;8.20;99.90;;;;;;2618659;47;20392;-80
2022/02/18 07:48:08;;;;;;;29.23;3.90;;;8.20;99.90;;;;;;2618748;54;20431;-80
2022/02/18 07:50:37;;;;;;;20.10;5.07;;;8.20;99.90;;;;;;2618615;47;20419;-79
2022/02/18 07:53:04;;;;;;;11.87;3.30;;;8.20;99.90;;;;;;2618572;47;21021;-80
2022/02/18 07:55:31;;;;;;;23.83;6.07;;;8.30;99.90;;;;;;2618363;54;20379;-79
2022/02/18 07:57:57;;;;;;;16.20;6.90;;;8.50;99.90;;;;;;2618405;47;20392;-79
2022/02/18 08:00:51;;;;;;;14.00;5.27;;;8.50;99.90;;;;;;2618338;54;20418;-77
2022/02/18 08:03:17;;;;;;;24.43;5.23;;;8.50;99.90;;;;;;2618213;47;20392;-78
2022/02/18 08:05:43;;;;;;;10.30;3.30;;;8.50;99.90;;;;;;2617813;47;20384;-78
2022/02/18 08:08:09;;;;;;;18.63;4.23;;;8.60;99.90;;;;;;2617833;47;20384;-77
2022/02/18 08:10:35;;;;;;;19.43;5.03;;;8.70;99.90;;;;;;2618242;47;20465;-79
2022/02/18 08:13:03;;;;;;;14.97;4.90;;;8.80;99.90;;;;;;2618235;54;20143;-78
2022/02/18 08:15:30;;;;;;;9.40;3.77;;;8.80;99.90;;;;;;2618330;54;20379;-77
2022/02/18 08:17:58;;;;;;;14.97;4.53;;;9.00;99.90;;;;;;2618163;54;20933;-78
2022/02/18 08:20:24;;;;;;;14.97;3.80;;;9.10;99.90;;;;;;2617995;54;20408;-77
2022/02/18 08:22:51;;;;;;;17.33;4.80;;;9.10;99.90;;;;;;2618565;39;20934;-77
2022/02/18 08:25:17;;;;;;;9.87;4.40;;;9.10;99.90;;;;;;2618153;47;20384;-77
2022/02/18 08:27:44;;;;;;;14.40;4.40;;;9.20;99.90;;;;;;2618398;54;20403;-78
2022/02/18 08:30:10;;;;;;;28.30;4.50;;;9.30;99.90;;;;;;2617984;47;20150;-78
2022/02/18 08:32:42;;;;;;;16.90;5.00;;;9.30;99.90;;;;;;2618313;47;20464;-78
2022/02/18 08:35:08;;;;;;;14.33;3.97;;;9.30;99.90;;;;;;2618318;47;20422;-79
2022/02/18 08:37:34;;;;;;;26.20;6.70;;;9.20;99.90;;;;;;2618102;47;20391;-79
2022/02/18 08:40:00;;;;;;;16.67;4.80;;;9.40;99.90;;;;;;2618306;47;20418;-78
2022/02/18 08:42:27;;;;;;;9.87;3.13;;;9.50;99.90;;;;;;2618825;47;20398;-78
2022/02/18 08:44:53;;;;;;;17.03;5.50;;;9.50;99.90;;;;;;2618978;54;20380;-78
2022/02/18 08:47:46;;;;;;;16.83;4.70;;;9.40;99.90;;;;;;2619217;39;20741;-77
2022/02/18 08:50:12;;;;;;;10.70;4.60;;;9.60;99.90;;;;;;2618044;47;20380;-78
2022/02/18 08:52:39;;;;;;;11.90;4.37;;;9.60;99.90;;;;;;2617793;47;20435;-77
2022/02/18 08:55:09;;;;;;;12.00;3.97;;;9.70;99.90;;;;;;2617927;54;20389;-77
2022/02/18 08:58:02;;;;;;;24.80;7.63;;;9.60;99.90;;;;;;2618004;54;20393;-79
2022/02/18 09:00:29;;;;;;;14.80;4.20;;;9.60;99.90;;;;;;2617725;47;20394;-78
2022/02/18 09:02:55;;;;;;;11.57;3.70;;;9.70;99.90;;;;;;2617805;54;20415;-79
2022/02/18 09:05:47;;;;;;;12.17;3.10;;;9.70;99.90;;;;;;2617725;47;20415;-78
2022/02/18 09:08:13;;;;;;;7.03;3.10;;;9.60;99.90;;;;;;2617762;47;20416;-79
2022/02/18 09:10:41;;;;;;;12.40;3.70;;;9.70;99.90;;;;;;2617341;54;20388;-75
2022/02/18 09:13:08;;;;;;;13.67;3.77;;;9.70;99.90;;;;;;2616486;54;20429;-76
2022/02/18 09:16:02;;;;;;;9.13;3.30;;;9.70;99.90;;;;;;2615858;54;20936;-77
2022/02/18 09:18:49;;;;;;;10.93;2.80;;;9.80;99.90;;;;;;2615732;47;20423;-76
2022/02/18 09:21:15;;;;;;;8.57;3.03;;;9.90;99.90;;;;;;2616627;54;21387;-76
2022/02/18 09:23:40;;;;;;;9.10;3.37;;;9.90;99.90;;;;;;2615987;47;20399;-76
2022/02/18 09:26:09;;;;;;;16.50;3.70;;;9.90;99.90;;;;;;2616084;47;20443;-76
2022/02/18 09:28:35;;;;;;;7.93;3.27;;;9.90;99.90;;;;;;2616498;47;20272;-76
2022/02/18 09:31:27;;;;;;;13.97;3.23;;;9.90;99.90;;;;;;2615504;47;21343;-76
2022/02/18 09:33:53;;;;;;;8.67;3.33;;;10.10;99.90;;;;;;2615442;54;20984;-77
2022/02/18 09:36:19;;;;;;;11.70;3.10;;;10.00;99.90;;;;;;2615727;54;20427;-77
2022/02/18 09:38:46;;;;;;;7.53;2.87;;;10.10;99.90;;;;;;2616201;46;20449;-77
2022/02/18 09:41:13;;;;;;;10.27;2.93;;;10.20;99.90;;;;;;2615586;47;20566;-76
2022/02/18 09:43:41;;;;;;;6.10;2.93;;;10.20;99.90;;;;;;2615816;47;20424;-76
2022/02/18 09:46:10;;;;;;;9.27;2.30;;;10.30;99.90;;;;;;2615659;54;20519;-76
2022/02/18 09:48:37;;;;;;;7.20;3.70;;;10.30;99.90;;;;;;2615728;47;20517;-76
2022/02/18 09:51:04;;;;;;;7.87;2.90;;;10.40;99.90;;;;;;2615436;54;20423;-76
2022/02/18 09:53:31;;;;;;;10.63;2.87;;;10.30;99.90;;;;;;2615239;47;20948;-76
2022/02/18 09:56:23;;;;;;;9.30;3.33;;;10.20;99.90;;;;;;2615800;54;20412;-76
2022/02/18 09:58:49;;;;;;;9.70;2.30;;;10.40;99.90;;;;;;2615575;54;20432;-76
2022/02/18 10:01:16;;;;;;;4.80;2.00;;;10.40;99.90;;;;;;2615807;47;20489;-76
2022/02/18 10:03:42;;;;;;;4.53;2.50;;;10.40;99.90;;;;;;2616110;54;20407;-77
2022/02/18 10:06:08;;;;;;;3.77;2.23;;;10.50;99.90;;;;;;2615518;47;20518;-78
2022/02/18 10:08:34;;;;;;;12.03;2.43;;;10.50;99.90;;;;;;2615531;54;20419;-76
2022/02/18 10:11:06;;;;;;;4.77;1.53;;;10.50;99.90;;;;;;2616214;54;21023;-76
2022/02/18 10:13:36;;;;;;;2.97;1.80;;;10.70;99.90;;;;;;2616023;47;20169;-76
2022/02/18 10:16:05;;;;;;;4.43;1.80;;;10.70;99.90;;;;;;2616257;47;20419;-76
2022/02/18 10:18:51;;;;;;;6.60;3.33;;;10.70;99.90;;;;;;2615290;54;20445;-75
2022/02/18 10:21:21;;;;;;;10.23;2.20;;;10.80;99.90;;;;;;2616534;47;20411;-77
2022/02/18 10:23:47;;;;;;;5.13;2.50;;;10.90;99.90;;;;;;2615803;54;20491;-77
2022/02/18 10:26:14;;;;;;;7.83;2.23;;;10.90;99.90;;;;;;2616312;47;20418;-76
2022/02/18 10:28:40;;;;;;;3.87;2.00;;;11.00;99.90;;;;;;2616012;46;20432;-77
2022/02/18 10:31:08;;;;;;;4.53;1.83;;;11.00;99.90;;;;;;2616104;47;20416;-76
2022/02/18 10:34:05;;;;;;;2.63;1.67;;;11.10;99.90;;;;;;2615987;54;20499;-75
2022/02/18 10:36:41;;;;;;;2.73;1.83;;;11.20;99.90;;;;;;2616155;54;20399;-78
2022/02/18 10:39:26;;;;;;;2.43;1.60;;;11.20;99.90;;;;;;2616131;54;20409;-77
2022/02/18 10:41:59;;;;;;;2.90;2.20;;;11.30;99.90;;;;;;2615823;54;20422;-77
2022/02/18 10:44:28;;;;;;;3.47;1.67;;;11.30;99.90;;;;;;2615568;54;20400;-77
2022/02/18 10:46:56;;;;;;;3.47;1.80;;;11.30;99.90;;;;;;2616224;47;20411;-77
2022/02/18 10:49:24;;;;;;;2.17;1.87;;;11.40;99.90;;;;;;2615896;47;21174;-78
2022/02/18 10:51:54;;;;;;;5.03;1.60;;;11.50;99.90;;;;;;2615960;47;20461;-77
2022/02/18 10:54:38;;;;;;;3.90;1.47;;;11.70;99.90;;;;;;2616722;39;20834;-76
2022/02/18 10:57:24;;;;;;;2.43;1.53;;;11.70;99.90;;;;;;2615958;54;20402;-76
2022/02/18 10:59:55;;;;;;;2.53;1.60;;;11.80;99.90;;;;;;2616103;47;20411;-77
2022/02/18 11:02:50;;;;;;;12.00;2.60;;;11.80;99.90;;;;;;2616473;54;20439;-77
2022/02/18 11:05:30;;;;;;;2.97;1.47;;;11.90;99.90;;;;;;2616894;47;20411;-77
2022/02/18 11:07:57;;;;;;;3.23;1.87;;;12.00;99.90;;;;;;2616470;47;20411;-76
2022/02/18 11:10:35;;;;;;;2.03;1.50;;;12.00;99.90;;;;;;2616657;47;20427;-76
2022/02/18 11:13:02;;;;;;;3.97;2.30;;;12.00;99.90;;;;;;2616476;54;20415;-77
2022/02/18 11:15:29;;;;;;;3.50;1.63;;;12.00;99.90;;;;;;2617000;54;20416;-77
2022/02/18 11:18:01;;;;;;;3.03;1.60;;;12.10;99.90;;;;;;2617924;54;20423;-77
2022/02/18 11:20:27;;;;;;;2.10;1.43;;;12.10;99.90;;;;;;2617587;46;20438;-77
2022/02/18 11:23:17;;;;;;;5.30;1.90;;;12.20;99.90;;;;;;2618426;54;20966;-78
2022/02/18 11:26:21;;;;;;;1.57;1.20;;;12.40;99.90;;;;;;2617246;54;20423;-77
2022/02/18 11:28:48;;;;;;;3.60;1.80;;;12.40;99.90;;;;;;2616830;47;21103;-78
2022/02/18 11:32:03;;;;;;;5.30;1.40;;;12.40;99.90;;;;;;2617303;46;20443;-77
2022/02/18 11:34:50;;;;;;;3.33;1.57;;;12.20;99.90;;;;;;2617420;46;20404;-77
2022/02/18 11:37:46;;;;;;;2.10;1.40;;;12.20;99.90;;;;;;2617123;54;20510;-77
2022/02/18 11:40:30;;;;;;;2.90;1.50;;;12.50;99.90;;;;;;2617473;47;20439;-77
2022/02/18 11:43:07;;;;;;;3.07;1.50;;;12.50;99.90;;;;;;2617791;54;20410;-77
2022/02/18 11:45:34;;;;;;;1.60;1.00;;;12.50;99.90;;;;;;2620746;54;20395;-76
2022/02/18 11:48:00;;;;;;;2.20;1.40;;;12.50;99.90;;;;;;2620409;54;20535;-78
2022/02/18 11:50:29;;;;;;;1.13;0.90;;;12.60;99.90;;;;;;2620624;47;20526;-75
2022/02/18 11:52:56;;;;;;;1.07;0.97;;;12.50;99.90;;;;;;2619765;47;20255;-76
2022/02/18 11:55:36;;;;;;;2.10;0.97;;;12.60;99.90;;;;;;2620408;47;20414;-75
2022/02/18 11:58:18;;;;;;;3.47;1.50;;;12.60;99.90;;;;;;2619581;47;20433;-78
2022/02/18 12:00:48;;;;;;;2.03;1.30;;;12.80;99.90;;;;;;2619746;47;20402;-78
2022/02/18 12:03:21;;;;;;;1.83;1.43;;;12.80;99.90;;;;;;2616030;54;20443;-77
2022/02/18 12:06:04;;;;;;;4.83;1.20;;;12.90;99.90;;;;;;2616912;54;20398;-78
2022/02/18 12:08:33;;;;;;;1.50;1.30;;;13.00;99.90;;;;;;2616577;54;20461;-76
2022/02/18 12:11:09;;;;;;;1.40;1.00;;;13.00;99.90;;;;;;2617605;47;20410;-77
2022/02/18 12:14:11;;;;;;;2.10;0.80;;;13.00;99.90;;;;;;2617373;47;21009;-76
2022/02/18 12:16:38;;;;;;;2.10;1.10;;;12.80;99.90;;;;;;2617355;47;20995;-77
2022/02/18 12:19:06;;;;;;;0.73;0.60;;;13.00;99.90;;;;;;2617777;47;20399;-77
2022/02/18 12:21:32;;;;;;;1.87;1.03;;;13.10;99.90;;;;;;2617635;47;20503;-77
2022/02/18 12:24:44;;;;;;;5.17;1.20;;;13.10;99.90;;;;;;2617568;54;20962;-77
2022/02/18 12:27:19;;;;;;;2.97;1.00;;;13.20;99.90;;;;;;2617211;54;20966;-76
2022/02/18 12:29:49;;;;;;;5.50;0.80;;;13.20;99.90;;;;;;2616778;47;21237;-76
2022/02/18 12:32:15;;;;;;;1.07;0.70;;;13.40;99.90;;;;;;2618239;39;20799;-76
2022/02/18 12:34:41;;;;;;;0.70;0.50;;;13.50;99.90;;;;;;2616498;47;20387;-76
2022/02/18 12:37:09;;;;;;;0.60;0.60;;;13.50;99.90;;;;;;2616367;39;20865;-78
2022/02/18 12:39:45;;;;;;;0.47;0.40;;;13.70;99.90;;;;;;2616313;54;20507;-77
2022/02/18 12:42:30;;;;;;;0.50;0.50;;;13.60;99.90;;;;;;2616327;54;20511;-76
2022/02/18 12:45:00;;;;;;;0.60;0.50;;;13.80;99.90;;;;;;2615380;47;20530;-77
2022/02/18 12:47:32;;;;;;;0.60;0.50;;;13.70;99.90;;;;;;2616203;47;20426;-77
2022/02/18 12:50:03;;;;;;;0.50;0.47;;;13.80;99.90;;;;;;2616285;54;20517;-77
2022/02/18 12:52:31;;;;;;;0.87;0.60;;;13.90;99.90;;;;;;2616008;47;20423;-77
2022/02/18 12:55:00;;;;;;;1.20;0.60;;;13.70;99.90;;;;;;2616187;54;20434;-77
2022/02/18 12:57:32;;;;;;;0.53;0.53;;;13.70;99.90;;;;;;2617112;47;20438;-77
2022/02/18 13:00:00;;;;;;;1.30;0.80;;;13.80;99.90;;;;;;2616948;47;20431;-77
2022/02/18 13:02:36;;;;;;;1.07;0.70;;;14.00;99.90;;;;;;2616791;47;20464;-78
2022/02/18 13:05:28;;;;;;;0.70;0.67;;;13.90;99.90;;;;;;2616569;47;20415;-77
2022/02/18 13:07:59;;;;;;;2.43;0.60;;;13.90;99.90;;;;;;2617197;54;20411;-78
2022/02/18 13:10:39;;;;;;;1.30;0.80;;;14.00;99.90;;;;;;2617162;47;20494;-77